createdAt,value
2023-03-17T00:00:53.071Z,8.27
2023-03-17T00:03:26.589Z,7.30
2023-03-17T00:05:55.015Z,8.57
2023-03-17T00:08:31.752Z,10.70
2023-03-17T00:11:00.173Z,7.83
2023-03-17T00:13:28.541Z,9.10
2023-03-17T00:16:02.676Z,7.20
2023-03-17T00:18:31.758Z,8.43
2023-03-17T00:20:59.823Z,7.03
2023-03-17T00:23:27.495Z,9.63
2023-03-17T00:25:55.335Z,7.60
2023-03-17T00:28:24.618Z,7.03
2023-03-17T00:30:58.190Z,9.57
2023-03-17T00:33:34.492Z,7.10
2023-03-17T00:36:02.239Z,8.50
2023-03-17T00:38:30.866Z,8.43
2023-03-17T00:40:58.760Z,6.97
2023-03-17T00:43:26.365Z,10.60
2023-03-17T00:45:57.030Z,8.27
2023-03-17T00:48:24.938Z,8.83
2023-03-17T00:50:52.551Z,6.73
2023-03-17T00:53:23.801Z,9.27
2023-03-17T00:55:52.259Z,8.50
2023-03-17T00:58:30.323Z,8.77
2023-03-17T01:01:01.291Z,7.00
2023-03-17T01:03:29.452Z,7.70
2023-03-17T01:05:58.268Z,6.90
2023-03-17T01:08:26.622Z,6.87
2023-03-17T01:10:54.817Z,8.03
2023-03-17T01:13:22.966Z,9.73
2023-03-17T01:15:53.604Z,7.87
2023-03-17T01:18:22.777Z,8.33
2023-03-17T01:20:51.333Z,7.50
2023-03-17T01:23:19.058Z,9.17
2023-03-17T01:25:46.781Z,8.70
2023-03-17T01:28:16.807Z,9.97
2023-03-17T01:30:45.498Z,8.93
2023-03-17T01:33:14.602Z,8.73
2023-03-17T01:35:43.934Z,9.83
2023-03-17T01:38:12.459Z,9.50
2023-03-17T01:40:49.651Z,7.50
2023-03-17T01:43:25.812Z,7.73
2023-03-17T01:46:18.405Z,7.30
2023-03-17T01:49:12.736Z,7.40
2023-03-17T01:51:49.039Z,7.97
2023-03-17T01:54:50.864Z,9.20
2023-03-17T01:57:28.572Z,9.73
2023-03-17T01:59:58.205Z,8.30
2023-03-17T02:02:35.453Z,10.20
2023-03-17T02:05:05.890Z,8.93
2023-03-17T02:07:34.503Z,8.77
2023-03-17T02:10:04.296Z,7.63
2023-03-17T02:12:34.212Z,8.23
2023-03-17T02:15:02.402Z,9.03
2023-03-17T02:17:30.077Z,7.73
2023-03-17T02:20:18.463Z,8.47
2023-03-17T02:22:52.499Z,8.27
2023-03-17T02:25:22.571Z,8.27
2023-03-17T02:27:55.596Z,9.80
2023-03-17T02:30:24.775Z,8.33
2023-03-17T02:32:55.485Z,8.87
2023-03-17T02:35:23.424Z,7.50
2023-03-17T02:37:51.112Z,10.07
2023-03-17T02:40:18.886Z,8.20
2023-03-17T02:42:46.728Z,7.70
2023-03-17T02:45:18.707Z,7.50
2023-03-17T02:47:48.001Z,6.67
2023-03-17T02:50:21.293Z,7.57
2023-03-17T02:52:49.844Z,9.23
2023-03-17T02:55:17.872Z,8.27
2023-03-17T02:57:47.980Z,7.40
2023-03-17T03:00:15.933Z,9.07
2023-03-17T03:02:43.706Z,7.83
2023-03-17T03:05:11.398Z,7.07
2023-03-17T03:07:39.064Z,8.63
2023-03-17T03:10:07.295Z,8.30
2023-03-17T03:12:35.009Z,7.97
2023-03-17T03:15:02.993Z,8.17
2023-03-17T03:17:30.595Z,9.57
2023-03-17T03:19:58.343Z,7.87
2023-03-17T03:22:25.995Z,8.37
2023-03-17T03:24:53.594Z,8.57
2023-03-17T03:27:23.928Z,8.33
2023-03-17T03:29:51.597Z,7.30
2023-03-17T03:32:19.269Z,7.50
2023-03-17T03:34:47.052Z,8.23
2023-03-17T03:37:15.102Z,8.07
2023-03-17T03:39:42.709Z,8.30
2023-03-17T03:42:10.577Z,8.50
2023-03-17T03:44:58.653Z,8.73
2023-03-17T03:47:26.391Z,10.97
2023-03-17T03:49:54.012Z,8.13
2023-03-17T03:52:22.107Z,10.60
2023-03-17T03:54:49.712Z,8.53
2023-03-17T03:57:17.372Z,7.93
2023-03-17T03:59:45.205Z,10.60
2023-03-17T04:02:12.935Z,9.13
2023-03-17T04:04:43.249Z,10.13
2023-03-17T04:07:11.478Z,11.77
2023-03-17T04:09:39.343Z,8.87
2023-03-17T04:12:08.272Z,8.47
2023-03-17T04:14:36.614Z,10.90
2023-03-17T04:17:05.192Z,8.83
2023-03-17T04:19:32.920Z,9.37
2023-03-17T04:22:00.723Z,8.80
2023-03-17T04:24:36.522Z,9.20
2023-03-17T04:27:06.770Z,8.80
2023-03-17T04:29:34.464Z,11.53
2023-03-17T04:32:03.321Z,12.07
2023-03-17T04:34:30.932Z,10.27
2023-03-17T04:36:59.075Z,13.33
2023-03-17T04:39:27.549Z,22.73
2023-03-17T04:41:55.285Z,15.87
2023-03-17T04:44:22.932Z,11.43
2023-03-17T04:46:50.653Z,13.23
2023-03-17T04:49:18.397Z,10.50
2023-03-17T04:51:46.412Z,13.37
2023-03-17T04:54:14.183Z,13.80
2023-03-17T04:56:42.048Z,11.80
2023-03-17T04:59:10.031Z,12.27
2023-03-17T05:01:39.256Z,11.97
2023-03-17T05:04:08.053Z,11.07
2023-03-17T05:06:37.219Z,9.87
2023-03-17T05:09:05.149Z,11.03
2023-03-17T05:11:33.246Z,12.80
2023-03-17T05:14:00.899Z,13.60
2023-03-17T05:16:28.603Z,13.30
2023-03-17T05:18:56.429Z,10.00
2023-03-17T05:21:26.800Z,10.43
2023-03-17T05:23:55.097Z,12.00
2023-03-17T05:26:27.245Z,10.90
2023-03-17T05:28:54.954Z,11.17
2023-03-17T05:31:22.614Z,12.00
2023-03-17T05:33:51.169Z,11.97
2023-03-17T05:36:18.847Z,10.20
2023-03-17T05:38:46.701Z,12.33
2023-03-17T05:41:14.376Z,10.97
2023-03-17T05:43:42.100Z,11.23
2023-03-17T05:46:11.108Z,12.57
2023-03-17T05:48:44.316Z,10.23
2023-03-17T05:51:11.979Z,9.70
2023-03-17T05:53:39.676Z,11.30
2023-03-17T05:56:07.929Z,10.50
2023-03-17T05:58:35.696Z,11.17
2023-03-17T06:01:03.355Z,9.57
2023-03-17T06:03:31.093Z,10.20
2023-03-17T06:05:58.767Z,12.67
2023-03-17T06:08:26.415Z,9.90
2023-03-17T06:10:54.117Z,8.83
2023-03-17T06:13:24.484Z,10.50
2023-03-17T06:15:55.314Z,10.60
2023-03-17T06:18:23.035Z,11.07
2023-03-17T06:20:50.763Z,10.83
2023-03-17T06:23:18.944Z,9.03
2023-03-17T06:25:47.698Z,12.60
2023-03-17T06:28:15.307Z,10.13
2023-03-17T06:30:43.029Z,10.27
2023-03-17T06:33:10.953Z,8.83
2023-03-17T06:35:39.056Z,8.37
2023-03-17T06:38:06.689Z,9.97
2023-03-17T06:40:34.508Z,8.97
2023-03-17T06:43:05.048Z,9.10
2023-03-17T06:45:33.230Z,8.50
2023-03-17T06:48:02.454Z,10.60
2023-03-17T06:50:30.204Z,8.90
2023-03-17T06:52:57.843Z,9.27
2023-03-17T06:55:25.885Z,9.10
2023-03-17T06:57:54.311Z,9.27
2023-03-17T07:00:23.094Z,10.97
2023-03-17T07:02:51.153Z,9.50
2023-03-17T07:05:18.835Z,9.10
2023-03-17T07:07:47.233Z,13.00
2023-03-17T07:10:15.914Z,9.43
2023-03-17T07:12:44.804Z,9.90
2023-03-17T07:15:15.476Z,8.77
2023-03-17T07:17:43.555Z,8.40
2023-03-17T07:20:14.038Z,9.30
2023-03-17T07:22:41.731Z,8.23
2023-03-17T07:25:10.063Z,7.93
2023-03-17T07:27:37.791Z,9.57
2023-03-17T07:30:06.534Z,8.47
2023-03-17T07:32:37.719Z,13.13
2023-03-17T07:35:07.401Z,20.27
2023-03-17T07:37:44.719Z,15.00
2023-03-17T07:40:13.013Z,14.57
2023-03-17T07:42:40.671Z,12.67
2023-03-17T07:45:08.825Z,12.40
2023-03-17T07:47:36.983Z,11.83
2023-03-17T07:50:05.289Z,13.87
2023-03-17T07:52:36.640Z,20.47
2023-03-17T07:55:10.901Z,10.83
2023-03-17T07:57:58.890Z,8.50
2023-03-17T08:01:05.380Z,12.83
2023-03-17T08:03:33.102Z,9.70
2023-03-17T08:06:06.027Z,12.33
2023-03-17T08:08:33.742Z,11.50
2023-03-17T08:11:04.760Z,8.97
2023-03-17T08:13:33.280Z,13.70
2023-03-17T08:16:01.088Z,7.87
2023-03-17T08:18:28.702Z,20.73
2023-03-17T08:20:56.385Z,10.00
2023-03-17T08:23:24.072Z,9.83
2023-03-17T08:26:01.892Z,10.57
2023-03-17T08:28:31.466Z,13.37
2023-03-17T08:31:17.178Z,15.30
2023-03-17T08:33:50.056Z,9.77
2023-03-17T08:36:19.287Z,8.07
2023-03-17T08:38:48.024Z,11.57
2023-03-17T08:41:18.709Z,11.17
2023-03-17T08:43:47.431Z,8.73
2023-03-17T08:46:21.148Z,7.73
2023-03-17T08:48:51.101Z,13.87
2023-03-17T08:51:23.646Z,8.47
2023-03-17T08:53:54.061Z,7.80
2023-03-17T08:56:22.521Z,8.83
2023-03-17T08:58:51.641Z,9.53
2023-03-17T09:01:21.230Z,9.30
2023-03-17T09:03:49.626Z,8.93
2023-03-17T09:06:18.021Z,7.93
2023-03-17T09:08:47.932Z,7.63
2023-03-17T09:11:18.691Z,8.77
2023-03-17T09:13:47.455Z,6.83
2023-03-17T09:16:20.700Z,11.60
2023-03-17T09:18:48.865Z,9.00
2023-03-17T09:21:17.283Z,7.20
2023-03-17T09:23:44.999Z,7.17
2023-03-17T09:26:12.868Z,13.30
2023-03-17T09:28:40.602Z,16.20
2023-03-17T09:31:11.520Z,9.00
2023-03-17T09:33:40.711Z,7.73
2023-03-17T09:36:10.723Z,9.13
2023-03-17T09:38:38.671Z,10.97
2023-03-17T09:41:20.943Z,14.47
2023-03-17T09:43:52.283Z,13.93
2023-03-17T09:46:29.983Z,9.90
2023-03-17T09:49:07.321Z,9.37
2023-03-17T09:51:35.881Z,21.83
2023-03-17T09:54:11.544Z,8.33
2023-03-17T09:56:43.317Z,8.27
2023-03-17T09:59:33.152Z,10.63
2023-03-17T10:02:03.570Z,8.37
2023-03-17T10:04:31.187Z,8.07
2023-03-17T10:07:04.554Z,7.47
2023-03-17T10:09:40.666Z,9.60
2023-03-17T10:13:02.395Z,12.53
2023-03-17T10:15:59.373Z,11.27
2023-03-17T10:18:32.868Z,8.20
2023-03-17T10:21:04.543Z,8.57
2023-03-17T10:23:34.842Z,9.17
2023-03-17T10:26:08.192Z,10.93
2023-03-17T10:28:38.703Z,9.10
2023-03-17T10:31:16.945Z,9.33
2023-03-17T10:33:49.186Z,7.60
2023-03-17T10:36:31.593Z,8.57
2023-03-17T10:38:59.886Z,9.53
2023-03-17T10:41:30.032Z,8.60
2023-03-17T10:44:02.829Z,10.67
2023-03-17T10:46:31.339Z,15.07
2023-03-17T10:49:16.400Z,9.93
2023-03-17T10:51:46.548Z,9.93
2023-03-17T10:54:18.799Z,8.67
2023-03-17T10:56:49.504Z,9.20
2023-03-17T10:59:27.808Z,8.63
2023-03-17T11:02:06.542Z,10.00
2023-03-17T11:04:36.351Z,42.60
2023-03-17T11:07:10.760Z,13.63
2023-03-17T11:09:38.476Z,16.40
2023-03-17T11:12:22.924Z,9.60
2023-03-17T11:14:50.610Z,12.03
2023-03-17T11:17:26.438Z,9.00
2023-03-17T11:20:24.547Z,9.23
2023-03-17T11:23:03.295Z,9.03
2023-03-17T11:25:35.288Z,9.13
2023-03-17T11:28:06.604Z,9.50
2023-03-17T11:30:35.722Z,9.43
2023-03-17T11:33:31.387Z,11.57
2023-03-17T11:36:24.712Z,8.88
2023-03-17T11:39:28.420Z,7.43
2023-03-17T11:42:19.407Z,10.70
2023-03-17T11:45:09.686Z,10.30
2023-03-17T11:48:02.564Z,7.75
2023-03-17T11:50:55.086Z,7.70
2023-03-17T11:53:55.742Z,15.30
2023-03-17T11:56:37.019Z,8.95
2023-03-17T11:59:13.952Z,10.88
2023-03-17T12:02:12.033Z,7.22
2023-03-17T12:04:49.574Z,10.30
2023-03-17T12:07:24.641Z,7.30
2023-03-17T12:10:01.860Z,7.30
2023-03-17T12:12:37.327Z,7.78
2023-03-17T12:15:17.672Z,10.50
2023-03-17T12:17:54.135Z,7.50
2023-03-17T12:20:51.253Z,7.37
2023-03-17T12:23:48.093Z,10.67
2023-03-17T12:26:24.245Z,11.50
2023-03-17T12:28:59.911Z,13.30
2023-03-17T12:31:55.247Z,9.77
2023-03-17T12:34:28.909Z,9.10
2023-03-17T12:36:56.601Z,9.47
2023-03-17T12:39:34.968Z,9.70
2023-03-17T12:42:17.128Z,9.73
2023-03-17T12:44:50.968Z,9.17
2023-03-17T12:47:30.555Z,10.77
2023-03-17T12:50:19.626Z,9.60
2023-03-17T12:53:29.756Z,11.23
2023-03-17T12:56:08.132Z,7.93
2023-03-17T12:58:48.905Z,11.25
2023-03-17T13:01:34.421Z,13.88
2023-03-17T13:04:07.293Z,11.43
2023-03-17T13:07:08.308Z,13.20
2023-03-17T13:09:43.553Z,8.80
2023-03-17T13:12:35.968Z,8.52
2023-03-17T13:15:03.849Z,15.50
2023-03-17T13:17:33.271Z,21.08
2023-03-17T13:20:10.393Z,12.63
2023-03-17T13:22:58.728Z,11.57
2023-03-17T13:25:34.902Z,9.90
2023-03-17T13:28:12.033Z,10.35
2023-03-17T13:30:39.840Z,11.10
2023-03-17T13:33:10.306Z,8.68
2023-03-17T13:36:05.239Z,12.00
2023-03-17T13:38:41.457Z,10.70
2023-03-17T13:41:17.307Z,12.32
2023-03-17T13:43:55.965Z,13.18
2023-03-17T13:46:41.804Z,8.73
2023-03-17T13:49:18.772Z,11.90
2023-03-17T13:52:03.438Z,10.93
2023-03-17T13:54:40.724Z,10.77
2023-03-17T13:57:23.785Z,14.23
2023-03-17T14:00:00.526Z,13.65
2023-03-17T14:02:31.760Z,10.80
2023-03-17T14:05:03.251Z,12.27
2023-03-17T14:07:42.215Z,13.43
2023-03-17T14:10:18.719Z,10.73
2023-03-17T14:13:13.234Z,12.82
2023-03-17T14:15:48.110Z,10.88
2023-03-17T14:18:18.294Z,9.37
2023-03-17T14:20:57.423Z,12.07
2023-03-17T14:23:26.569Z,16.97
2023-03-17T14:26:01.587Z,13.83
2023-03-17T14:28:34.586Z,12.77
2023-03-17T14:31:07.309Z,12.63
2023-03-17T14:33:41.069Z,10.77
2023-03-17T14:36:14.206Z,15.30
2023-03-17T14:38:49.321Z,14.17
2023-03-17T14:41:19.931Z,10.53
2023-03-17T14:43:48.513Z,13.10
2023-03-17T14:46:18.436Z,10.30
2023-03-17T14:48:48.830Z,10.73
2023-03-17T14:51:16.595Z,10.57
2023-03-17T14:53:46.494Z,11.43
2023-03-17T14:56:14.463Z,10.43
2023-03-17T14:58:45.548Z,10.50
2023-03-17T15:01:32.095Z,10.53
2023-03-17T15:04:14.817Z,11.30
2023-03-17T15:06:57.952Z,10.63
2023-03-17T15:09:34.685Z,17.03
2023-03-17T15:12:24.711Z,12.73
2023-03-17T15:14:54.479Z,10.80
2023-03-17T15:17:27.708Z,15.70
2023-03-17T15:20:00.492Z,12.50
2023-03-17T15:22:42.008Z,13.50
2023-03-17T15:25:31.892Z,15.27
2023-03-17T15:27:59.931Z,13.20
2023-03-17T15:30:44.279Z,16.47
2023-03-17T15:33:42.048Z,13.83
2023-03-17T15:36:29.350Z,13.27
2023-03-17T15:38:59.171Z,16.30
2023-03-17T15:41:26.846Z,16.23
2023-03-17T15:43:54.431Z,14.80
2023-03-17T15:46:30.708Z,14.87
2023-03-17T15:48:58.966Z,16.63
2023-03-17T15:51:26.885Z,17.67
2023-03-17T15:53:54.540Z,14.07
2023-03-17T15:56:22.143Z,21.07
2023-03-17T15:58:52.280Z,15.50
2023-03-17T16:01:20.770Z,16.33
2023-03-17T16:03:55.643Z,16.64
2023-03-17T16:06:24.412Z,13.83
2023-03-17T16:08:52.048Z,13.43
2023-03-17T16:11:27.890Z,15.97
2023-03-17T16:13:57.043Z,13.30
2023-03-17T16:16:37.274Z,16.83
2023-03-17T16:19:06.103Z,15.33
2023-03-17T16:21:33.949Z,14.83
2023-03-17T16:24:01.652Z,15.63
2023-03-17T16:26:29.221Z,16.90
2023-03-17T16:28:57.475Z,14.17
2023-03-17T16:31:29.228Z,15.40
2023-03-17T16:33:57.492Z,14.87
2023-03-17T16:36:29.081Z,14.40
2023-03-17T16:38:56.731Z,13.83
2023-03-17T16:41:27.258Z,13.90
2023-03-17T16:44:01.226Z,13.57
2023-03-17T16:46:35.016Z,12.87
2023-03-17T16:49:07.139Z,12.27
2023-03-17T16:51:34.794Z,16.70
2023-03-17T16:54:02.428Z,14.00
2023-03-17T16:56:31.458Z,13.63
2023-03-17T16:58:59.778Z,14.00
2023-03-17T17:01:28.764Z,14.80
2023-03-17T17:03:57.759Z,15.00
2023-03-17T17:06:27.544Z,14.47
2023-03-17T17:08:55.378Z,15.67
2023-03-17T17:11:22.984Z,19.23
2023-03-17T17:13:51.698Z,18.47
2023-03-17T17:16:34.463Z,19.47
2023-03-17T17:19:03.647Z,17.27
2023-03-17T17:21:32.922Z,16.07
2023-03-17T17:24:00.823Z,16.33
2023-03-17T17:26:28.430Z,17.93
2023-03-17T17:28:56.076Z,14.13
2023-03-17T17:31:23.915Z,15.30
2023-03-17T17:33:52.037Z,12.67
2023-03-17T17:36:19.634Z,16.33
2023-03-17T17:38:47.347Z,20.73
2023-03-17T17:41:21.885Z,14.70
2023-03-17T17:43:50.385Z,14.47
2023-03-17T17:46:23.862Z,12.07
2023-03-17T17:48:51.794Z,13.03
2023-03-17T17:51:19.447Z,12.17
2023-03-17T17:53:47.148Z,13.50
2023-03-17T17:56:16.413Z,14.63
2023-03-17T17:58:44.850Z,14.10
2023-03-17T18:01:14.126Z,14.13
2023-03-17T18:03:43.100Z,11.40
2023-03-17T18:06:13.040Z,13.10
2023-03-17T18:08:41.532Z,12.17
2023-03-17T18:11:09.485Z,15.13
2023-03-17T18:13:38.972Z,16.97
2023-03-17T18:16:10.067Z,15.07
2023-03-17T18:18:40.538Z,14.23
2023-03-17T18:21:08.170Z,16.33
2023-03-17T18:23:36.532Z,18.10
2023-03-17T18:26:06.083Z,14.77
2023-03-17T18:28:34.164Z,15.37
2023-03-17T18:31:16.529Z,19.17
2023-03-17T18:33:47.304Z,14.80
2023-03-17T18:36:15.351Z,18.87
2023-03-17T18:38:42.939Z,16.70
2023-03-17T18:41:11.106Z,14.80
2023-03-17T18:43:41.210Z,16.53
2023-03-17T18:46:08.918Z,23.30
2023-03-17T18:48:36.549Z,15.53
2023-03-17T18:51:04.613Z,19.27
2023-03-17T18:53:37.258Z,17.17
2023-03-17T18:56:07.263Z,24.50
2023-03-17T18:58:36.145Z,21.37
2023-03-17T19:01:07.629Z,18.10
2023-03-17T19:03:35.366Z,28.93
2023-03-17T19:06:12.026Z,19.57
2023-03-17T19:08:42.811Z,21.07
2023-03-17T19:11:13.506Z,17.03
2023-03-17T19:13:42.247Z,24.27
2023-03-17T19:16:10.439Z,18.80
2023-03-17T19:18:41.871Z,17.43
2023-03-17T19:21:11.238Z,15.30
2023-03-17T19:23:41.393Z,17.57
2023-03-17T19:26:09.093Z,22.60
2023-03-17T19:28:36.771Z,22.30
2023-03-17T19:31:04.545Z,22.17
2023-03-17T19:33:32.754Z,20.57
2023-03-17T19:36:05.300Z,21.17
2023-03-17T19:38:33.309Z,23.13
2023-03-17T19:41:00.851Z,19.50
2023-03-17T19:43:39.951Z,19.57
2023-03-17T19:46:10.959Z,15.93
2023-03-17T19:48:39.406Z,17.13
2023-03-17T19:51:08.028Z,16.67
2023-03-17T19:53:37.180Z,16.93
2023-03-17T19:56:05.109Z,16.40
2023-03-17T19:58:32.694Z,19.07
2023-03-17T20:01:00.542Z,17.07
2023-03-17T20:03:31.010Z,16.93
2023-03-17T20:05:58.702Z,16.67
2023-03-17T20:08:26.657Z,13.73
2023-03-17T20:11:03.224Z,15.80
2023-03-17T20:13:30.888Z,15.07
2023-03-17T20:15:58.562Z,14.27
2023-03-17T20:18:29.251Z,16.53
2023-03-17T20:20:57.620Z,17.17
2023-03-17T20:23:25.952Z,18.43
2023-03-17T20:25:53.828Z,21.20
2023-03-17T20:28:21.960Z,18.03
2023-03-17T20:30:50.070Z,14.93
2023-03-17T20:33:18.104Z,15.37
2023-03-17T20:35:49.328Z,27.80
2023-03-17T20:38:17.138Z,20.30
2023-03-17T20:40:44.805Z,15.30
2023-03-17T20:43:12.917Z,20.00
2023-03-17T20:45:40.632Z,20.77
2023-03-17T20:48:10.678Z,19.90
2023-03-17T20:50:39.223Z,14.73
2023-03-17T20:53:07.443Z,15.63
2023-03-17T20:55:37.755Z,14.30
2023-03-17T20:58:05.664Z,15.33
2023-03-17T21:00:33.697Z,14.80
2023-03-17T21:03:02.030Z,14.20
2023-03-17T21:05:29.765Z,13.87
2023-03-17T21:07:57.574Z,13.90
2023-03-17T21:10:25.404Z,13.30
2023-03-17T21:12:53.110Z,14.03
2023-03-17T21:15:22.790Z,12.17
2023-03-17T21:17:50.446Z,15.20
2023-03-17T21:20:18.338Z,11.40
2023-03-17T21:22:45.983Z,16.10
2023-03-17T21:25:13.852Z,16.90
2023-03-17T21:27:42.620Z,12.53
2023-03-17T21:30:13.388Z,10.60
2023-03-17T21:32:41.819Z,14.93
2023-03-17T21:35:10.605Z,12.83
2023-03-17T21:37:41.021Z,13.33
2023-03-17T21:40:11.218Z,17.90
2023-03-17T21:42:39.446Z,15.43
2023-03-17T21:45:07.384Z,13.50
2023-03-17T21:47:36.339Z,12.97
2023-03-17T21:50:05.207Z,11.03
2023-03-17T21:52:33.746Z,13.70
2023-03-17T21:55:01.384Z,14.63
2023-03-17T21:57:29.626Z,14.90
2023-03-17T21:59:57.242Z,13.10
2023-03-17T22:02:24.952Z,12.20
2023-03-17T22:04:55.436Z,13.27
2023-03-17T22:07:23.367Z,12.40
2023-03-17T22:09:53.497Z,10.77
2023-03-17T22:12:21.344Z,10.40
2023-03-17T22:14:49.015Z,12.73
2023-03-17T22:17:16.987Z,13.33
2023-03-17T22:19:44.764Z,14.57
2023-03-17T22:22:12.607Z,12.20
2023-03-17T22:24:40.946Z,12.80
2023-03-17T22:27:08.932Z,14.00
2023-03-17T22:29:36.717Z,12.67
2023-03-17T22:32:04.840Z,13.40
2023-03-17T22:34:33.464Z,15.03
2023-03-17T22:37:01.069Z,13.53
2023-03-17T22:39:28.762Z,14.20
2023-03-17T22:41:56.340Z,14.17
2023-03-17T22:44:24.258Z,14.97
2023-03-17T22:46:51.908Z,12.07
2023-03-17T22:49:19.510Z,13.93
2023-03-17T22:51:47.924Z,41.73
2023-03-17T22:54:16.223Z,21.20
2023-03-17T22:56:44.249Z,13.77
2023-03-17T22:59:11.948Z,11.77
2023-03-17T23:01:39.699Z,12.30
2023-03-17T23:04:07.818Z,13.03
2023-03-17T23:06:36.685Z,16.43
2023-03-17T23:09:04.819Z,17.97
2023-03-17T23:11:32.447Z,13.80
2023-03-17T23:14:00.201Z,14.13
2023-03-17T23:16:27.977Z,14.40
2023-03-17T23:18:55.750Z,12.43
2023-03-17T23:21:28.370Z,15.70
2023-03-17T23:23:56.519Z,14.93
2023-03-17T23:26:24.344Z,13.07
2023-03-17T23:28:52.103Z,13.93
2023-03-17T23:31:20.566Z,15.43
2023-03-17T23:33:49.521Z,13.33
2023-03-17T23:36:18.072Z,16.27
2023-03-17T23:38:46.193Z,28.07
2023-03-17T23:41:14.477Z,18.63
2023-03-17T23:43:42.261Z,19.87
2023-03-17T23:46:10.583Z,14.83
2023-03-17T23:48:40.860Z,17.07
2023-03-17T23:51:12.049Z,12.23
2023-03-17T23:53:40.383Z,14.07
2023-03-17T23:56:10.485Z,15.33
2023-03-17T23:58:46.235Z,15.20
